Time;durP1;ratioP1;P1;durP2;ratioP2;P2;SDS_P1;SDS_P2;PMS_P1;PMS_P2;Temp;Humidity;BMP_temperature;BMP_pressure;BME280_temperature;BME280_humidity;BME280_pressure;Samples;Min_cycle;Max_cycle;Signal;HPM_P1;HPM_P2
2021/12/23 00:00:08;;;;;;;31.05;21.42;;;;;;;;;;5133672;28;20039;-76
2021/12/23 00:02:34;;;;;;;41.35;22.88;;;;;;;;;;5133609;28;20131;-77
2021/12/23 00:05:00;;;;;;;37.88;23.08;;;;;;;;;;5133409;28;20050;-76
2021/12/23 00:07:27;;;;;;;35.50;22.27;;;;;;;;;;5115223;28;20046;-76
2021/12/23 00:12:25;;;;;;;34.63;22.65;;;;;;;;;;5133624;28;20047;-77
2021/12/23 00:14:52;;;;;;;34.45;23.20;;;;;;;;;;5133374;28;20047;-78
2021/12/23 00:17:52;;;;;;;34.88;22.10;;;;;;;;;;5133390;28;20054;-78
2021/12/23 00:25:25;;;;;;;33.25;21.75;;;;;;;;;;5133267;28;20051;-77
2021/12/23 00:27:51;;;;;;;34.70;21.30;;;;;;;;;;5133306;28;20103;-77
2021/12/23 00:30:17;;;;;;;36.03;23.52;;;;;;;;;;5098091;28;20051;-77
2021/12/23 00:32:43;;;;;;;39.50;23.48;;;;;;;;;;5114977;28;20121;-78
2021/12/23 00:35:10;;;;;;;32.78;22.08;;;;;;;;;;5114942;28;20047;-78
2021/12/23 00:37:40;;;;;;;35.40;22.00;;;;;;;;;;5098213;28;20039;-78
2021/12/23 00:40:08;;;;;;;32.60;21.95;;;;;;;;;;5133169;28;20143;-77
2021/12/23 00:42:34;;;;;;;33.10;20.45;;;;;;;;;;5115026;28;20126;-78
2021/12/23 00:45:03;;;;;;;32.45;20.42;;;;;;;;;;5114968;28;20035;-77
2021/12/23 00:47:29;;;;;;;35.70;22.08;;;;;;;;;;5133211;28;20066;-79
2021/12/23 00:49:56;;;;;;;35.17;21.48;;;;;;;;;;5133213;28;20054;-77
2021/12/23 00:52:31;;;;;;;34.03;21.40;;;;;;;;;;5133061;28;20487;-78
2021/12/23 00:54:58;;;;;;;34.28;21.92;;;;;;;;;;5114745;28;20051;-77
2021/12/23 00:57:29;;;;;;;36.38;21.95;;;;;;;;;;5132990;28;20047;-78
2021/12/23 00:59:56;;;;;;;31.10;19.95;;;;;;;;;;5133042;28;20388;-78
2021/12/23 01:02:29;;;;;;;31.70;21.08;;;;;;;;;;5133050;28;20035;-77
2021/12/23 01:04:55;;;;;;;33.72;20.92;;;;;;;;;;5134695;27;20039;-76
2021/12/23 01:07:22;;;;;;;33.38;20.98;;;;;;;;;;5118431;27;20487;-78
2021/12/23 01:09:48;;;;;;;34.13;20.20;;;;;;;;;;5136599;27;20112;-78
2021/12/23 01:12:17;;;;;;;32.80;21.40;;;;;;;;;;5136564;27;20535;-78
2021/12/23 01:15:12;;;;;;;33.42;21.17;;;;;;;;;;5136614;27;20057;-77
2021/12/23 01:18:00;;;;;;;29.92;20.65;;;;;;;;;;5136489;27;20053;-76
2021/12/23 01:20:31;;;;;;;31.40;20.85;;;;;;;;;;5136399;27;20387;-77
2021/12/23 01:23:01;;;;;;;31.75;21.65;;;;;;;;;;5117790;27;20051;-79
2021/12/23 01:25:28;;;;;;;32.30;21.08;;;;;;;;;;5136393;27;20127;-77
2021/12/23 01:27:54;;;;;;;31.80;21.45;;;;;;;;;;5118145;27;20490;-78
2021/12/23 01:30:20;;;;;;;31.48;18.80;;;;;;;;;;5136235;27;20083;-78
2021/12/23 01:32:48;;;;;;;28.02;20.05;;;;;;;;;;5136214;27;20122;-78
2021/12/23 01:35:14;;;;;;;28.48;20.08;;;;;;;;;;5136081;27;20047;-77
2021/12/23 01:37:40;;;;;;;33.78;20.15;;;;;;;;;;5136257;27;20043;-77
2021/12/23 01:40:08;;;;;;;28.85;19.33;;;;;;;;;;5136094;27;20043;-78
2021/12/23 01:42:34;;;;;;;29.35;20.02;;;;;;;;;;5136045;27;20053;-78
2021/12/23 01:45:01;;;;;;;29.75;19.83;;;;;;;;;;5135780;27;20476;-77
2021/12/23 01:47:29;;;;;;;27.85;18.95;;;;;;;;;;5135606;27;20039;-78
2021/12/23 01:49:55;;;;;;;29.98;19.35;;;;;;;;;;5117494;27;20050;-79
2021/12/23 01:52:22;;;;;;;31.15;19.85;;;;;;;;;;5135729;27;20043;-78
2021/12/23 01:54:48;;;;;;;29.52;19.52;;;;;;;;;;5135550;27;20043;-78
2021/12/23 01:57:14;;;;;;;32.35;20.55;;;;;;;;;;5117316;27;20130;-77
2021/12/23 01:59:40;;;;;;;30.55;19.85;;;;;;;;;;5135662;27;20046;-79
2021/12/23 02:02:06;;;;;;;29.15;20.02;;;;;;;;;;5117298;27;20128;-76
2021/12/23 02:04:33;;;;;;;28.73;19.10;;;;;;;;;;5117321;27;20041;-77
2021/12/23 02:06:59;;;;;;;31.85;20.38;;;;;;;;;;5135552;27;20121;-78
2021/12/23 02:09:25;;;;;;;29.63;20.23;;;;;;;;;;5135574;27;20083;-78
2021/12/23 02:11:51;;;;;;;27.92;19.77;;;;;;;;;;5135468;27;20445;-77
2021/12/23 02:14:18;;;;;;;31.08;19.63;;;;;;;;;;5135295;27;20079;-77
2021/12/23 02:16:44;;;;;;;26.45;20.00;;;;;;;;;;5135037;27;20117;-79
2021/12/23 02:19:17;;;;;;;29.27;19.40;;;;;;;;;;5135368;27;20046;-78
2021/12/23 02:21:44;;;;;;;28.45;19.42;;;;;;;;;;5117035;27;20047;-77
2021/12/23 02:24:10;;;;;;;29.38;19.40;;;;;;;;;;5116793;27;20461;-78
2021/12/23 02:26:40;;;;;;;32.50;20.63;;;;;;;;;;5135044;27;20047;-78
2021/12/23 02:29:06;;;;;;;31.88;20.35;;;;;;;;;;5134982;27;20039;-78
2021/12/23 02:31:33;;;;;;;31.25;19.05;;;;;;;;;;5135134;27;20492;-77
2021/12/23 02:33:59;;;;;;;30.45;20.63;;;;;;;;;;5134988;27;20369;-79
2021/12/23 02:36:26;;;;;;;26.88;19.10;;;;;;;;;;5134862;27;20095;-78
2021/12/23 02:38:53;;;;;;;28.65;19.10;;;;;;;;;;5134725;27;20050;-77
2021/12/23 02:41:19;;;;;;;28.73;18.98;;;;;;;;;;5116550;27;20507;-77
2021/12/23 02:43:45;;;;;;;31.45;19.50;;;;;;;;;;5116439;27;20484;-76
2021/12/23 02:46:13;;;;;;;30.02;18.85;;;;;;;;;;5134916;27;20384;-77
2021/12/23 02:48:39;;;;;;;29.08;19.02;;;;;;;;;;5116564;27;20043;-78
2021/12/23 02:51:10;;;;;;;29.85;20.45;;;;;;;;;;5134799;27;20063;-78
2021/12/23 02:53:36;;;;;;;31.83;20.27;;;;;;;;;;5116379;27;20058;-78
2021/12/23 02:56:04;;;;;;;27.17;19.17;;;;;;;;;;5134491;27;20039;-78
2021/12/23 02:58:31;;;;;;;32.13;20.63;;;;;;;;;;5134395;27;20043;-78
2021/12/23 03:00:58;;;;;;;27.70;18.40;;;;;;;;;;5115946;27;20388;-77
2021/12/23 03:03:25;;;;;;;28.60;19.10;;;;;;;;;;5116139;27;20122;-76
2021/12/23 03:05:52;;;;;;;27.60;19.00;;;;;;;;;;5134422;27;20046;-79
2021/12/23 03:08:28;;;;;;;27.45;18.70;;;;;;;;;;5116148;27;20260;-78
2021/12/23 03:10:54;;;;;;;28.77;19.25;;;;;;;;;;5116029;27;20075;-77
2021/12/23 03:13:20;;;;;;;27.15;18.52;;;;;;;;;;5134086;27;20539;-76
2021/12/23 03:15:46;;;;;;;30.23;19.70;;;;;;;;;;5134201;27;20043;-78
2021/12/23 03:18:12;;;;;;;28.25;18.92;;;;;;;;;;5115856;27;20047;-76
2021/12/23 03:20:38;;;;;;;27.48;18.95;;;;;;;;;;5133916;27;20122;-78
2021/12/23 03:23:05;;;;;;;28.00;19.30;;;;;;;;;;5133659;27;20142;-77
2021/12/23 03:25:31;;;;;;;27.90;19.30;;;;;;;;;;5115585;27;20189;-77
2021/12/23 03:27:58;;;;;;;25.02;18.55;;;;;;;;;;5133365;27;20097;-78
2021/12/23 03:30:24;;;;;;;28.25;19.08;;;;;;;;;;5115695;27;20047;-78
2021/12/23 03:32:50;;;;;;;28.15;18.92;;;;;;;;;;5133831;27;20122;-78
2021/12/23 03:35:16;;;;;;;29.45;18.30;;;;;;;;;;5115540;27;20043;-77
2021/12/23 03:37:43;;;;;;;28.45;18.70;;;;;;;;;;5115359;27;20047;-79
2021/12/23 03:40:09;;;;;;;27.88;18.98;;;;;;;;;;5133608;27;20043;-76
2021/12/23 03:42:36;;;;;;;27.25;18.80;;;;;;;;;;5115600;28;20043;-79
2021/12/23 03:45:02;;;;;;;26.95;18.13;;;;;;;;;;5115390;28;20498;-78
2021/12/23 03:47:28;;;;;;;25.73;17.60;;;;;;;;;;5115518;27;20039;-78
2021/12/23 03:49:54;;;;;;;25.73;17.08;;;;;;;;;;5133646;27;20541;-79
2021/12/23 03:52:20;;;;;;;28.50;19.20;;;;;;;;;;5133644;27;20035;-78
2021/12/23 03:54:46;;;;;;;29.25;18.48;;;;;;;;;;5114968;27;20043;-77
2021/12/23 03:57:12;;;;;;;27.73;18.02;;;;;;;;;;5133826;28;20434;-76
2021/12/23 03:59:38;;;;;;;26.25;18.67;;;;;;;;;;5133558;28;20309;-77
2021/12/23 04:02:05;;;;;;;25.15;18.30;;;;;;;;;;5133541;28;20039;-78
2021/12/23 04:04:31;;;;;;;27.67;19.52;;;;;;;;;;5133334;28;20039;-77
2021/12/23 04:06:57;;;;;;;28.25;19.27;;;;;;;;;;5133258;28;20434;-78
2021/12/23 04:09:23;;;;;;;27.58;19.27;;;;;;;;;;5133294;28;20043;-79
2021/12/23 04:11:49;;;;;;;26.95;18.48;;;;;;;;;;5098298;28;20125;-78
2021/12/23 04:14:15;;;;;;;26.98;18.90;;;;;;;;;;5133287;28;20380;-78
2021/12/23 04:16:42;;;;;;;26.85;18.85;;;;;;;;;;5133368;28;20043;-78
2021/12/23 04:19:10;;;;;;;25.40;19.27;;;;;;;;;;5115287;28;20046;-77
2021/12/23 04:21:37;;;;;;;26.95;19.63;;;;;;;;;;5133139;28;20137;-78
2021/12/23 04:24:03;;;;;;;27.27;17.70;;;;;;;;;;5115462;28;20070;-76
2021/12/23 04:26:29;;;;;;;26.55;19.45;;;;;;;;;;5133455;28;20613;-78
2021/12/23 04:28:56;;;;;;;26.02;17.42;;;;;;;;;;5133479;28;20055;-79
2021/12/23 04:31:22;;;;;;;26.58;18.60;;;;;;;;;;5133354;28;20078;-77
2021/12/23 04:33:49;;;;;;;30.35;18.83;;;;;;;;;;5133135;28;20046;-77
2021/12/23 04:36:16;;;;;;;27.70;19.13;;;;;;;;;;5097669;28;20046;-78
2021/12/23 04:38:43;;;;;;;27.40;19.38;;;;;;;;;;5133358;27;20439;-77
2021/12/23 04:41:09;;;;;;;27.98;19.67;;;;;;;;;;5137092;27;20049;-77
2021/12/23 04:43:35;;;;;;;25.90;18.88;;;;;;;;;;5137323;27;20046;-79
2021/12/23 04:46:01;;;;;;;30.77;19.60;;;;;;;;;;5137160;27;20123;-76
2021/12/23 04:48:28;;;;;;;25.73;19.27;;;;;;;;;;5136976;27;20545;-78
2021/12/23 04:50:54;;;;;;;28.00;18.92;;;;;;;;;;5118629;27;20042;-77
2021/12/23 04:53:20;;;;;;;27.00;19.20;;;;;;;;;;5118587;27;20043;-77
2021/12/23 04:55:46;;;;;;;27.77;19.45;;;;;;;;;;5136943;27;20047;-77
2021/12/23 04:58:12;;;;;;;25.73;19.13;;;;;;;;;;5136888;27;20123;-78
2021/12/23 05:00:38;;;;;;;27.65;19.55;;;;;;;;;;5118701;27;20095;-77
2021/12/23 05:03:05;;;;;;;26.00;19.17;;;;;;;;;;5118556;27;20054;-78
2021/12/23 05:05:31;;;;;;;28.83;20.27;;;;;;;;;;5101533;27;20116;-77
2021/12/23 05:07:57;;;;;;;27.50;19.40;;;;;;;;;;5136860;27;20126;-77
2021/12/23 05:10:25;;;;;;;25.23;19.23;;;;;;;;;;5118435;27;20110;-77
2021/12/23 05:12:51;;;;;;;26.40;18.33;;;;;;;;;;5118458;27;20035;-78
2021/12/23 05:15:18;;;;;;;26.63;18.95;;;;;;;;;;5136512;27;20127;-78
2021/12/23 05:17:44;;;;;;;28.35;19.45;;;;;;;;;;5118272;27;20051;-79
2021/12/23 05:20:12;;;;;;;28.13;19.02;;;;;;;;;;5136295;27;20043;-77
2021/12/23 05:22:38;;;;;;;28.98;19.10;;;;;;;;;;5136136;27;20062;-77
2021/12/23 05:25:05;;;;;;;26.13;19.08;;;;;;;;;;5136486;27;20441;-76
2021/12/23 05:27:31;;;;;;;27.38;19.20;;;;;;;;;;5136384;27;20130;-78
2021/12/23 05:29:58;;;;;;;30.02;19.45;;;;;;;;;;5136175;27;20075;-77
2021/12/23 05:32:24;;;;;;;28.35;19.40;;;;;;;;;;5117910;27;20068;-78
2021/12/23 05:34:50;;;;;;;27.23;18.48;;;;;;;;;;5100966;27;20543;-76
2021/12/23 05:37:16;;;;;;;27.88;19.77;;;;;;;;;;5136131;27;20046;-76
2021/12/23 05:39:42;;;;;;;27.73;18.88;;;;;;;;;;5136201;27;20503;-76
2021/12/23 05:42:08;;;;;;;29.00;19.27;;;;;;;;;;5136040;27;20046;-77
2021/12/23 05:44:34;;;;;;;27.02;18.77;;;;;;;;;;5135973;27;20043;-78
2021/12/23 05:47:01;;;;;;;25.45;18.88;;;;;;;;;;5135842;27;20134;-78
2021/12/23 05:49:27;;;;;;;29.15;18.60;;;;;;;;;;5117752;27;20226;-77
2021/12/23 05:51:53;;;;;;;28.70;18.48;;;;;;;;;;5135613;27;20071;-77
2021/12/23 05:54:19;;;;;;;29.17;19.10;;;;;;;;;;5135718;27;20046;-78
2021/12/23 05:56:45;;;;;;;27.67;18.73;;;;;;;;;;5135837;27;20046;-77
2021/12/23 05:59:11;;;;;;;27.23;19.08;;;;;;;;;;5135614;27;20035;-78
2021/12/23 06:01:37;;;;;;;28.75;19.08;;;;;;;;;;5135455;27;20046;-78
2021/12/23 06:04:03;;;;;;;26.85;19.17;;;;;;;;;;5135700;27;20183;-77
2021/12/23 06:06:29;;;;;;;31.33;19.30;;;;;;;;;;5135533;27;20042;-77
2021/12/23 06:08:56;;;;;;;30.85;19.85;;;;;;;;;;5135532;27;20050;-78
2021/12/23 06:11:22;;;;;;;27.80;19.58;;;;;;;;;;5135454;27;20522;-77
2021/12/23 06:13:48;;;;;;;26.73;18.02;;;;;;;;;;5116931;27;20034;-78
2021/12/23 06:16:14;;;;;;;30.55;19.73;;;;;;;;;;5135151;27;20054;-78
2021/12/23 06:18:40;;;;;;;26.30;18.75;;;;;;;;;;5135380;27;20045;-78
2021/12/23 06:21:06;;;;;;;28.65;19.25;;;;;;;;;;5135185;27;20039;-79
2021/12/23 06:23:32;;;;;;;31.38;19.55;;;;;;;;;;5135081;27;20055;-77
2021/12/23 06:25:58;;;;;;;27.45;19.35;;;;;;;;;;5135084;27;20051;-77
2021/12/23 06:28:25;;;;;;;27.55;19.58;;;;;;;;;;5099812;27;20042;-78
2021/12/23 06:30:51;;;;;;;26.55;19.17;;;;;;;;;;5134944;27;20495;-77
2021/12/23 06:33:17;;;;;;;30.00;19.13;;;;;;;;;;5135064;27;20070;-78
2021/12/23 06:35:43;;;;;;;28.77;19.20;;;;;;;;;;5135002;27;20043;-77
2021/12/23 06:38:10;;;;;;;28.77;18.40;;;;;;;;;;5134996;27;20043;-77
2021/12/23 06:40:37;;;;;;;28.33;19.67;;;;;;;;;;5116667;27;20051;-77
2021/12/23 06:43:03;;;;;;;29.17;19.75;;;;;;;;;;5116226;27;20100;-77
2021/12/23 06:45:29;;;;;;;27.45;19.05;;;;;;;;;;5134573;27;20035;-77
2021/12/23 06:47:55;;;;;;;28.65;20.05;;;;;;;;;;5134803;27;20043;-78
2021/12/23 06:50:22;;;;;;;28.25;19.38;;;;;;;;;;5116433;27;20051;-77
2021/12/23 06:52:49;;;;;;;31.60;20.08;;;;;;;;;;5134945;27;20054;-78
2021/12/23 06:55:16;;;;;;;29.35;19.67;;;;;;;;;;5134490;27;20126;-79
2021/12/23 06:57:43;;;;;;;31.63;20.38;;;;;;;;;;5134480;27;20487;-79
2021/12/23 07:00:14;;;;;;;29.20;20.30;;;;;;;;;;5134398;27;20044;-79
2021/12/23 07:02:40;;;;;;;;;;;;;;;;;;5134268;27;20051;-79
2021/12/23 07:05:07;;;;;;;29.27;19.08;;;;;;;;;;5134505;27;19915;-77
2021/12/23 07:07:41;;;;;;;29.52;20.42;;;;;;;;;;5134256;27;20043;-77
2021/12/23 07:10:08;;;;;;;29.25;20.10;;;;;;;;;;5134140;27;20045;-76
2021/12/23 07:12:35;;;;;;;30.05;20.27;;;;;;;;;;5115633;27;20070;-79
2021/12/23 07:15:01;;;;;;;30.02;20.67;;;;;;;;;;5134238;27;20125;-78
2021/12/23 07:17:27;;;;;;;31.08;21.08;;;;;;;;;;5134202;27;20173;-77
2021/12/23 07:19:53;;;;;;;31.90;21.17;;;;;;;;;;5134437;27;20126;-77
2021/12/23 07:22:19;;;;;;;31.45;21.42;;;;;;;;;;5133898;27;20134;-77
2021/12/23 07:24:45;;;;;;;32.25;21.17;;;;;;;;;;5133890;27;20159;-78
2021/12/23 07:27:11;;;;;;;29.58;20.02;;;;;;;;;;5133832;27;20125;-78
2021/12/23 07:29:37;;;;;;;30.48;20.30;;;;;;;;;;5134065;27;20452;-74
2021/12/23 07:32:05;;;;;;;33.08;21.40;;;;;;;;;;5134033;27;20043;-78
2021/12/23 07:34:31;;;;;;;32.00;21.25;;;;;;;;;;5133788;27;20126;-77
2021/12/23 07:36:58;;;;;;;30.55;21.10;;;;;;;;;;5133255;27;20134;-77
2021/12/23 07:39:24;;;;;;;33.35;22.05;;;;;;;;;;5098642;27;20054;-78
2021/12/23 07:41:50;;;;;;;31.17;21.75;;;;;;;;;;5133586;27;20383;-77
2021/12/23 07:44:20;;;;;;;33.38;22.00;;;;;;;;;;5133834;27;20046;-77
2021/12/23 07:46:46;;;;;;;32.08;22.27;;;;;;;;;;5133843;27;20046;-78
2021/12/23 07:49:13;;;;;;;32.78;21.75;;;;;;;;;;5133611;27;20490;-77
2021/12/23 07:51:39;;;;;;;32.65;21.73;;;;;;;;;;5133477;27;20130;-78
2021/12/23 07:54:05;;;;;;;33.80;22.50;;;;;;;;;;5133377;27;20039;-79
2021/12/23 07:56:31;;;;;;;34.13;22.33;;;;;;;;;;5115343;27;20373;-77
2021/12/23 07:58:58;;;;;;;35.10;22.45;;;;;;;;;;5133651;28;20043;-79
2021/12/23 08:01:24;;;;;;;33.25;22.67;;;;;;;;;;5132970;28;20441;-78
2021/12/23 08:03:50;;;;;;;32.33;22.00;;;;;;;;;;5132422;28;20043;-78
2021/12/23 08:06:18;;;;;;;36.10;23.17;;;;;;;;;;5133135;28;20487;-78
2021/12/23 08:08:44;;;;;;;34.35;22.58;;;;;;;;;;5133173;28;20184;-79
2021/12/23 08:11:10;;;;;;;36.88;24.23;;;;;;;;;;5115214;28;20058;-78
2021/12/23 08:13:37;;;;;;;34.72;22.95;;;;;;;;;;5099333;27;20043;-78
2021/12/23 08:16:04;;;;;;;34.13;22.88;;;;;;;;;;5137487;27;20039;-77
2021/12/23 08:18:31;;;;;;;34.33;23.17;;;;;;;;;;5102244;27;20047;-77
2021/12/23 08:20:57;;;;;;;35.90;24.10;;;;;;;;;;5137720;27;20050;-78
2021/12/23 08:23:24;;;;;;;35.88;25.15;;;;;;;;;;5137243;27;20047;-78
2021/12/23 08:25:50;;;;;;;37.20;23.83;;;;;;;;;;5137540;27;20082;-78
2021/12/23 08:28:16;;;;;;;37.40;24.48;;;;;;;;;;5137517;27;20144;-77
2021/12/23 08:30:43;;;;;;;35.45;24.13;;;;;;;;;;5136865;27;20527;-78
2021/12/23 08:33:09;;;;;;;34.63;24.25;;;;;;;;;;5132622;27;20481;-78
2021/12/23 08:35:36;;;;;;;39.35;25.65;;;;;;;;;;5136900;27;20487;-78
2021/12/23 08:38:02;;;;;;;38.97;25.23;;;;;;;;;;5119131;27;20434;-79
2021/12/23 08:40:29;;;;;;;36.60;24.52;;;;;;;;;;5116232;28;20043;-77
2021/12/23 08:42:56;;;;;;;37.35;24.77;;;;;;;;;;5098320;28;20048;-79
2021/12/23 08:45:24;;;;;;;37.45;25.23;;;;;;;;;;5098279;28;20051;-78
2021/12/23 08:47:50;;;;;;;39.90;24.20;;;;;;;;;;5116311;28;20690;-78
2021/12/23 08:50:17;;;;;;;39.03;26.08;;;;;;;;;;5098272;28;20126;-77
2021/12/23 08:52:44;;;;;;;36.42;25.52;;;;;;;;;;5116475;28;20096;-77
2021/12/23 08:55:10;;;;;;;41.45;27.30;;;;;;;;;;5098236;28;20070;-77
2021/12/23 08:57:36;;;;;;;37.45;25.33;;;;;;;;;;5098062;28;20050;-77
2021/12/23 09:00:07;;;;;;;39.55;26.80;;;;;;;;;;5098345;28;20104;-79
2021/12/23 09:02:33;;;;;;;37.03;25.70;;;;;;;;;;5116239;28;20211;-78
2021/12/23 09:04:59;;;;;;;37.80;24.98;;;;;;;;;;5115855;28;20047;-78
2021/12/23 09:07:25;;;;;;;42.40;27.80;;;;;;;;;;5116168;28;20055;-79
2021/12/23 09:09:52;;;;;;;39.47;27.38;;;;;;;;;;5097975;28;20044;-79
2021/12/23 09:12:19;;;;;;;43.35;29.15;;;;;;;;;;5116088;28;20085;-77
2021/12/23 09:14:45;;;;;;;40.30;27.83;;;;;;;;;;5115831;28;20043;-78
2021/12/23 09:17:13;;;;;;;41.15;27.35;;;;;;;;;;5097908;28;20519;-79
2021/12/23 09:19:39;;;;;;;43.70;28.10;;;;;;;;;;5097703;28;20571;-78
2021/12/23 09:22:05;;;;;;;43.72;28.70;;;;;;;;;;5115800;28;20043;-79
2021/12/23 09:24:32;;;;;;;42.75;28.88;;;;;;;;;;5115529;28;20051;-78
2021/12/23 09:27:10;;;;;;;46.15;29.70;;;;;;;;;;5097400;28;20172;-78
2021/12/23 09:34:51;;;;;;;42.85;28.73;;;;;;;;;;5097315;28;20047;-78
2021/12/23 09:37:18;;;;;;;46.53;30.65;;;;;;;;;;5115536;28;20058;-78
2021/12/23 09:39:45;;;;;;;42.45;27.77;;;;;;;;;;5097235;28;20090;-77
2021/12/23 09:42:11;;;;;;;49.13;29.88;;;;;;;;;;5097420;28;20047;-77
2021/12/23 09:44:37;;;;;;;44.30;29.00;;;;;;;;;;5115306;28;20047;-78
2021/12/23 09:47:03;;;;;;;45.20;30.05;;;;;;;;;;5097353;28;20053;-77
2021/12/23 09:49:30;;;;;;;48.30;30.25;;;;;;;;;;5115370;28;20040;-80
2021/12/23 09:51:57;;;;;;;47.83;28.42;;;;;;;;;;5115298;28;20114;-80
2021/12/23 09:54:25;;;;;;;52.80;32.40;;;;;;;;;;5115041;28;20051;-78
2021/12/23 09:56:52;;;;;;;49.03;30.63;;;;;;;;;;5115131;28;20083;-79
2021/12/23 09:59:20;;;;;;;45.75;30.67;;;;;;;;;;5096590;28;20460;-77
2021/12/23 10:01:46;;;;;;;52.15;32.78;;;;;;;;;;5115056;28;20039;-79
2021/12/23 10:04:12;;;;;;;47.33;30.40;;;;;;;;;;5115110;28;20536;-78
2021/12/23 10:06:39;;;;;;;52.67;33.42;;;;;;;;;;5114999;28;20040;-79
2021/12/23 10:09:05;;;;;;;50.42;32.25;;;;;;;;;;5096900;28;20048;-78
2021/12/23 10:11:54;;;;;;;55.92;32.97;;;;;;;;;;5114881;28;20074;-79
2021/12/23 10:31:28;;;;;;;50.17;32.15;;;;;;;;;;5114179;28;20043;-80
2021/12/23 10:37:19;;;;;;;51.70;31.80;;;;;;;;;;5082301;28;20055;-79
2021/12/23 10:39:45;;;;;;;;;;;;;;;;;;5096742;28;20048;-78
2021/12/23 10:42:14;;;;;;;53.92;31.83;;;;;;;;;;5114119;28;19955;-79
2021/12/23 10:44:40;;;;;;;55.03;32.95;;;;;;;;;;5096165;28;20096;-79
2021/12/23 10:47:08;;;;;;;57.38;34.55;;;;;;;;;;5113898;28;20075;-78
2021/12/23 11:00:12;;;;;;;56.50;32.83;;;;;;;;;;5096157;28;20459;-78
2021/12/23 11:02:41;;;;;;;56.63;34.13;;;;;;;;;;5095838;28;20043;-79
2021/12/23 11:05:23;;;;;;;57.63;34.20;;;;;;;;;;5095911;28;20043;-80
2021/12/23 11:08:04;;;;;;;53.67;33.08;;;;;;;;;;5113524;28;20150;-78
2021/12/23 11:38:12;;;;;;;57.50;35.10;;;;;;;;;;5113076;28;20127;-80
2021/12/23 11:45:47;;;;;;;62.70;36.30;;;;;;;;;;5094226;28;20040;-81
2021/12/23 11:48:14;;;;;;;63.97;36.35;;;;;;;;;;5111086;28;20476;-81
2021/12/23 11:50:53;;;;;;;58.55;35.63;;;;;;;;;;5112248;28;20043;-81
2021/12/23 11:53:20;;;;;;;64.22;34.67;;;;;;;;;;5112062;28;20122;-80
2021/12/23 11:55:46;;;;;;;61.92;36.25;;;;;;;;;;5093489;28;20047;-79
2021/12/23 11:58:14;;;;;;;67.80;38.22;;;;;;;;;;5094099;28;20127;-79
2021/12/23 12:00:43;;;;;;;64.72;38.08;;;;;;;;;;5094050;28;20050;-79
2021/12/23 12:03:10;;;;;;;62.15;37.10;;;;;;;;;;5093918;28;20118;-79
2021/12/23 12:05:37;;;;;;;67.43;38.63;;;;;;;;;;5112172;28;20108;-79
2021/12/23 12:08:11;;;;;;;61.50;37.13;;;;;;;;;;5093552;28;20043;-81
2021/12/23 12:10:40;;;;;;;61.33;36.70;;;;;;;;;;5093694;28;20067;-78
2021/12/23 12:13:07;;;;;;;68.60;38.05;;;;;;;;;;5076583;28;20088;-80
2021/12/23 12:15:39;;;;;;;64.88;38.35;;;;;;;;;;5111727;28;20132;-79
2021/12/23 12:18:10;;;;;;;68.47;38.28;;;;;;;;;;5111866;28;20373;-79
2021/12/23 12:20:42;;;;;;;67.90;39.38;;;;;;;;;;5111831;28;20087;-82
2021/12/23 12:23:13;;;;;;;62.05;35.78;;;;;;;;;;5090266;28;20067;-81
2021/12/23 12:25:53;;;;;;;64.70;39.00;;;;;;;;;;5091462;28;20064;-81
2021/12/23 12:28:23;;;;;;;60.58;35.40;;;;;;;;;;5096090;28;20100;-79
2021/12/23 12:30:57;;;;;;;69.43;39.97;;;;;;;;;;5111214;28;20142;-78
2021/12/23 12:33:23;;;;;;;61.50;36.88;;;;;;;;;;5090296;28;20465;-81
2021/12/23 12:36:11;;;;;;;63.53;35.63;;;;;;;;;;5092288;28;20044;-79
2021/12/23 12:38:42;;;;;;;57.20;34.28;;;;;;;;;;5091958;28;20051;-81
2021/12/23 12:41:08;;;;;;;;;;;;;;;;;;5091565;28;20078;-80
2021/12/23 12:43:46;;;;;;;60.00;33.83;;;;;;;;;;5095106;28;20308;-81
2021/12/23 12:46:14;;;;;;;62.28;34.55;;;;;;;;;;5111628;28;20553;-80
2021/12/23 12:48:56;;;;;;;66.13;36.20;;;;;;;;;;5108124;28;20059;-82
2021/12/23 12:51:24;;;;;;;58.83;35.97;;;;;;;;;;5092024;28;20373;-80
2021/12/23 12:53:55;;;;;;;60.67;35.22;;;;;;;;;;5092125;28;20380;-80
2021/12/23 12:56:32;;;;;;;62.67;36.25;;;;;;;;;;5090952;28;20056;-81
2021/12/23 12:58:58;;;;;;;64.05;36.22;;;;;;;;;;5091546;28;20052;-80
2021/12/23 13:01:34;;;;;;;63.35;34.83;;;;;;;;;;5093406;28;20048;-82
2021/12/23 13:04:01;;;;;;;67.82;36.75;;;;;;;;;;5095923;28;20415;-81
2021/12/23 13:06:37;;;;;;;62.47;35.90;;;;;;;;;;5092787;28;20105;-79
2021/12/23 13:09:11;;;;;;;61.83;35.72;;;;;;;;;;5094781;28;20040;-81
2021/12/23 13:11:42;;;;;;;60.80;35.80;;;;;;;;;;5094878;28;20073;-80
2021/12/23 13:14:13;;;;;;;63.58;36.60;;;;;;;;;;5111851;28;20490;-79
2021/12/23 13:16:58;;;;;;;65.40;37.10;;;;;;;;;;5114128;28;20381;-81
2021/12/23 13:19:32;;;;;;;58.95;35.25;;;;;;;;;;5093402;28;20075;-80
2021/12/23 13:21:59;;;;;;;66.28;37.03;;;;;;;;;;5094865;28;20043;-81
2021/12/23 13:24:26;;;;;;;60.65;35.72;;;;;;;;;;5097779;28;20442;-81
2021/12/23 13:26:53;;;;;;;66.03;36.90;;;;;;;;;;5113607;28;20130;-81
2021/12/23 13:29:25;;;;;;;64.78;36.90;;;;;;;;;;5131312;27;20039;-80
2021/12/23 13:31:51;;;;;;;62.17;35.67;;;;;;;;;;5116352;27;20043;-82
2021/12/23 13:34:19;;;;;;;80.53;41.92;;;;;;;;;;5133090;27;20098;-81
2021/12/23 13:36:47;;;;;;;141.32;60.72;;;;;;;;;;5135185;27;20130;-80
2021/12/23 13:39:14;;;;;;;78.57;42.72;;;;;;;;;;5100598;28;20118;-83
2021/12/23 13:41:48;;;;;;;66.70;40.30;;;;;;;;;;5096123;28;20075;-79
2021/12/23 13:44:33;;;;;;;64.72;37.47;;;;;;;;;;5094641;28;20122;-81
2021/12/23 13:47:15;;;;;;;59.72;35.03;;;;;;;;;;5097095;28;20048;-79
2021/12/23 13:49:47;;;;;;;;;;;;;;;;;;5115585;28;20097;-81
2021/12/23 13:52:22;;;;;;;58.13;34.65;;;;;;;;;;5097268;28;19923;-80
2021/12/23 13:54:49;;;;;;;61.17;37.47;;;;;;;;;;5096685;28;20044;-81
2021/12/23 13:57:19;;;;;;;62.10;36.22;;;;;;;;;;5114935;28;20485;-80
2021/12/23 13:59:46;;;;;;;64.63;37.17;;;;;;;;;;5114921;28;20053;-81
2021/12/23 14:02:17;;;;;;;66.90;37.47;;;;;;;;;;5114903;28;20066;-80
2021/12/23 14:04:46;;;;;;;67.53;38.05;;;;;;;;;;5114835;28;20043;-80
2021/12/23 14:07:16;;;;;;;71.72;38.15;;;;;;;;;;5096711;28;20043;-81
2021/12/23 14:09:43;;;;;;;73.60;40.28;;;;;;;;;;5097028;28;20043;-82
2021/12/23 14:12:12;;;;;;;73.60;40.08;;;;;;;;;;5096598;28;20126;-79
2021/12/23 14:14:49;;;;;;;68.57;38.95;;;;;;;;;;5114945;28;20090;-80
2021/12/23 14:17:26;;;;;;;71.18;39.85;;;;;;;;;;5114433;28;20430;-80
2021/12/23 14:23:11;;;;;;;66.47;36.92;;;;;;;;;;5114605;28;20082;-80
2021/12/23 14:25:30;;;;;;;63.63;37.20;;;;;;;;;;5112282;28;20565;-79
2021/12/23 14:27:57;;;;;;;64.13;37.00;;;;;;;;;;5094211;28;20383;-81
2021/12/23 14:30:33;;;;;;;69.07;38.55;;;;;;;;;;5094623;28;20211;-81
2021/12/23 14:33:13;;;;;;;69.10;39.08;;;;;;;;;;5112693;28;20476;-80
2021/12/23 14:35:39;;;;;;;66.50;37.72;;;;;;;;;;5094298;28;20058;-81
2021/12/23 14:38:06;;;;;;;67.75;38.80;;;;;;;;;;5112420;28;20042;-80
2021/12/23 14:40:32;;;;;;;62.70;37.03;;;;;;;;;;5112185;28;20048;-80
2021/12/23 14:43:02;;;;;;;63.70;36.85;;;;;;;;;;5094256;28;20050;-82
2021/12/23 14:45:28;;;;;;;65.95;37.00;;;;;;;;;;5112303;28;20039;-79
2021/12/23 14:47:58;;;;;;;63.05;36.15;;;;;;;;;;5112097;28;20066;-80
2021/12/23 14:50:26;;;;;;;61.25;35.33;;;;;;;;;;5112269;28;20044;-80
2021/12/23 14:52:56;;;;;;;65.47;37.47;;;;;;;;;;5093694;28;20570;-79
2021/12/23 14:55:22;;;;;;;63.40;37.10;;;;;;;;;;5112091;28;20043;-81
2021/12/23 14:57:51;;;;;;;64.38;35.88;;;;;;;;;;5112216;28;20047;-79
2021/12/23 15:00:27;;;;;;;60.53;36.20;;;;;;;;;;5077060;28;20137;-78
2021/12/23 15:03:00;;;;;;;60.30;34.33;;;;;;;;;;5111753;28;20043;-79
2021/12/23 15:05:27;;;;;;;64.32;37.05;;;;;;;;;;5111484;28;20083;-79
2021/12/23 15:07:59;;;;;;;62.33;36.03;;;;;;;;;;5111855;28;20122;-80
2021/12/23 15:10:45;;;;;;;57.38;33.13;;;;;;;;;;5093822;28;20043;-81
2021/12/23 15:13:23;;;;;;;62.78;34.90;;;;;;;;;;5092707;28;20051;-80
2021/12/23 15:15:56;;;;;;;65.68;35.72;;;;;;;;;;5111457;28;20043;-80
2021/12/23 15:18:31;;;;;;;66.03;36.83;;;;;;;;;;5111487;28;20043;-80
2021/12/23 15:20:58;;;;;;;61.35;34.42;;;;;;;;;;5093436;28;20062;-80
2021/12/23 15:23:59;;;;;;;61.65;34.83;;;;;;;;;;5092575;28;20063;-79
2021/12/23 15:26:25;;;;;;;60.25;34.60;;;;;;;;;;5028414;28;20056;-80
2021/12/23 15:29:08;;;;;;;63.47;34.80;;;;;;;;;;5094979;28;20054;-79
2021/12/23 15:31:35;;;;;;;64.95;36.53;;;;;;;;;;5093303;28;20449;-80
2021/12/23 15:34:06;;;;;;;63.05;35.30;;;;;;;;;;5093152;28;20130;-79
2021/12/23 15:36:32;;;;;;;66.03;36.67;;;;;;;;;;5111088;28;20043;-80
2021/12/23 15:38:58;;;;;;;64.97;35.70;;;;;;;;;;5111461;28;20044;-80
2021/12/23 15:41:24;;;;;;;61.13;34.72;;;;;;;;;;5111290;28;20496;-79
2021/12/23 15:43:50;;;;;;;61.00;34.35;;;;;;;;;;5076318;28;20393;-80